Time;durP1;ratioP1;P1;durP2;ratioP2;P2;SDS_P1;SDS_P2;PMS_P1;PMS_P2;Temp;Humidity;BMP_temperature;BMP_pressure;BME280_temperature;BME280_humidity;BME280_pressure;Samples;Min_cycle;Max_cycle;Signal;HPM_P1;HPM_P2
2023/01/01 00:00:06;;;;;;;9.00;2.40;;;22.40;48.90;;;;;;4992867;28;20201;-40
2023/01/01 00:02:37;;;;;;;5.72;2.08;;;22.50;48.90;;;;;;4993497;28;20209;-40
2023/01/01 00:05:08;;;;;;;6.72;2.17;;;22.50;48.80;;;;;;4994088;28;20309;-43
2023/01/01 00:07:39;;;;;;;7.88;3.13;;;22.50;48.80;;;;;;4992870;28;20232;-41
2023/01/01 00:10:29;;;;;;;10.73;2.50;;;22.60;49.30;;;;;;5012895;28;20197;-40
2023/01/01 00:13:02;;;;;;;7.55;2.40;;;22.60;49.60;;;;;;5012358;28;20209;-42
2023/01/01 00:15:33;;;;;;;5.93;2.03;;;22.70;49.80;;;;;;5010408;28;20204;-42
2023/01/01 00:18:04;;;;;;;5.53;1.92;;;22.80;49.70;;;;;;5013177;28;20197;-40
2023/01/01 00:20:34;;;;;;;6.38;2.10;;;22.80;49.60;;;;;;5012102;28;20193;-42
2023/01/01 00:23:05;;;;;;;4.88;1.73;;;22.90;49.50;;;;;;5012704;28;20208;-40
2023/01/01 00:25:36;;;;;;;5.75;2.08;;;22.90;49.40;;;;;;5012840;28;20707;-43
2023/01/01 00:28:09;;;;;;;6.43;1.80;;;22.90;49.20;;;;;;5012928;28;20193;-42
2023/01/01 00:30:42;;;;;;;6.68;2.08;;;23.00;49.00;;;;;;5012689;28;20254;-45
2023/01/01 00:33:13;;;;;;;4.35;1.92;;;23.00;49.00;;;;;;5013322;28;20570;-41
2023/01/01 00:35:43;;;;;;;6.93;1.77;;;23.00;48.90;;;;;;5012085;28;20215;-41
2023/01/01 00:38:14;;;;;;;6.53;1.85;;;23.00;48.70;;;;;;5012958;28;20208;-46
2023/01/01 00:40:45;;;;;;;5.45;1.83;;;23.10;48.70;;;;;;5002595;28;20551;-44
2023/01/01 00:43:18;;;;;;;5.95;1.85;;;23.10;48.60;;;;;;5006929;28;20200;-46
2023/01/01 00:45:53;;;;;;;3.85;1.75;;;23.10;48.60;;;;;;5009375;28;20221;-43
2023/01/01 00:48:25;;;;;;;4.72;1.70;;;23.10;48.50;;;;;;5011709;28;20200;-46
2023/01/01 00:50:55;;;;;;;5.13;1.48;;;23.20;48.50;;;;;;5012713;28;20201;-40
2023/01/01 00:53:26;;;;;;;4.18;1.77;;;23.20;48.40;;;;;;5012101;28;20233;-43
2023/01/01 00:55:57;;;;;;;3.63;1.40;;;23.30;48.40;;;;;;5011831;28;20201;-42
2023/01/01 00:58:29;;;;;;;4.85;1.42;;;23.30;48.30;;;;;;5011957;28;20266;-40
2023/01/01 01:01:00;;;;;;;4.25;1.50;;;23.30;48.30;;;;;;5012398;28;20201;-46
2023/01/01 01:03:31;;;;;;;6.30;1.92;;;23.40;48.20;;;;;;5011774;28;20227;-41
2023/01/01 01:06:10;;;;;;;3.45;1.52;;;23.40;48.10;;;;;;5012035;28;20684;-43
2023/01/01 01:08:42;;;;;;;5.47;1.40;;;23.40;47.90;;;;;;5010990;28;20619;-45
2023/01/01 01:11:16;;;;;;;2.88;1.40;;;23.40;47.90;;;;;;5011331;28;20276;-45
2023/01/01 01:13:50;;;;;;;6.25;1.67;;;23.50;47.80;;;;;;5011922;28;20590;-41
2023/01/01 01:16:23;;;;;;;4.20;1.30;;;23.50;47.80;;;;;;5011965;28;20213;-44
2023/01/01 01:18:54;;;;;;;3.65;1.40;;;23.50;47.70;;;;;;5013001;28;20771;-42
2023/01/01 01:21:25;;;;;;;4.88;1.50;;;23.50;47.70;;;;;;5012066;28;20205;-41
2023/01/01 01:23:56;;;;;;;3.03;1.10;;;23.50;47.70;;;;;;5012068;28;20220;-46
2023/01/01 01:26:28;;;;;;;3.90;1.15;;;23.50;47.70;;;;;;5011958;28;20588;-43
2023/01/01 01:29:01;;;;;;;3.45;1.55;;;23.60;47.70;;;;;;5012237;28;20201;-41
2023/01/01 01:31:34;;;;;;;3.00;1.40;;;23.60;47.60;;;;;;5012097;28;20212;-41
2023/01/01 01:34:05;;;;;;;3.42;1.27;;;23.70;47.60;;;;;;5008549;28;20212;-43
2023/01/01 01:36:35;;;;;;;5.70;1.73;;;23.70;47.60;;;;;;5011917;28;20228;-40
2023/01/01 01:39:06;;;;;;;4.22;1.40;;;23.70;47.60;;;;;;5011704;28;20204;-43
2023/01/01 01:41:37;;;;;;;3.05;1.38;;;23.70;47.40;;;;;;5010851;28;20196;-44
2023/01/01 01:44:47;;;;;;;2.50;1.30;;;23.80;47.40;;;;;;5011828;28;20219;-41
2023/01/01 01:47:19;;;;;;;4.95;1.45;;;23.80;47.30;;;;;;5011936;28;20239;-41
2023/01/01 01:49:51;;;;;;;4.60;1.67;;;23.80;47.30;;;;;;5011970;28;20212;-45
2023/01/01 01:52:22;;;;;;;3.55;1.52;;;23.80;47.20;;;;;;5011712;28;20209;-41
2023/01/01 01:54:53;;;;;;;4.45;1.25;;;23.80;47.10;;;;;;5011528;28;20224;-42
2023/01/01 01:57:24;;;;;;;3.42;1.20;;;23.80;47.10;;;;;;5011114;28;20200;-45
2023/01/01 01:59:58;;;;;;;3.75;1.40;;;23.90;47.20;;;;;;5011496;28;20205;-46
2023/01/01 02:02:37;;;;;;;2.80;1.10;;;23.90;47.20;;;;;;5011779;28;20204;-44
2023/01/01 02:05:09;;;;;;;4.85;1.50;;;23.90;47.20;;;;;;5010986;28;20219;-41
2023/01/01 02:07:40;;;;;;;2.90;1.52;;;24.00;47.20;;;;;;5010960;28;20236;-44
2023/01/01 02:10:11;;;;;;;3.47;1.13;;;24.00;47.10;;;;;;5011644;28;20204;-42
2023/01/01 02:12:42;;;;;;;2.03;0.95;;;24.00;47.10;;;;;;5011003;28;20215;-44
2023/01/01 02:15:15;;;;;;;2.83;1.25;;;24.00;47.10;;;;;;5010998;28;20685;-41
2023/01/01 02:17:55;;;;;;;4.35;1.60;;;24.00;46.90;;;;;;5011077;28;20197;-43
2023/01/01 02:20:41;;;;;;;4.53;1.33;;;24.00;46.80;;;;;;5011231;28;20212;-43
2023/01/01 02:23:48;;;;;;;2.65;1.23;;;24.10;46.70;;;;;;5010941;28;20672;-44
2023/01/01 02:26:50;;;;;;;4.50;1.55;;;24.10;46.60;;;;;;4982118;28;20861;-42
2023/01/01 02:29:37;;;;;;;3.65;1.40;;;24.10;46.70;;;;;;4978788;28;20201;-41
2023/01/01 02:32:12;;;;;;;4.20;1.25;;;24.10;46.40;;;;;;4998546;28;20193;-42
2023/01/01 02:34:47;;;;;;;4.05;1.25;;;24.20;46.40;;;;;;4999206;28;20208;-42
2023/01/01 02:37:20;;;;;;;4.32;1.27;;;24.20;46.40;;;;;;4999664;28;20189;-42
2023/01/01 02:39:56;;;;;;;3.90;1.30;;;24.20;46.40;;;;;;4999411;28;20668;-41
2023/01/01 02:42:29;;;;;;;5.05;1.77;;;24.20;46.40;;;;;;5002549;28;20280;-44
2023/01/01 02:45:02;;;;;;;2.63;1.17;;;24.20;46.30;;;;;;5000176;28;20217;-46
2023/01/01 02:47:33;;;;;;;3.92;1.27;;;24.20;46.20;;;;;;4999328;28;20224;-44
2023/01/01 02:50:11;;;;;;;2.05;1.13;;;24.20;46.20;;;;;;4999480;28;20648;-42
2023/01/01 02:53:07;;;;;;;2.75;1.35;;;24.30;46.20;;;;;;4999577;28;20290;-48
2023/01/01 02:55:54;;;;;;;3.15;1.17;;;24.30;46.20;;;;;;4991380;28;20193;-41
2023/01/01 03:01:29;;;;;;;3.75;1.30;;;24.30;46.10;;;;;;5000506;28;20324;-42
2023/01/01 03:04:09;;;;;;;3.17;1.20;;;24.40;45.90;;;;;;5000042;28;20229;-44
2023/01/01 03:06:47;;;;;;;3.58;1.50;;;24.40;45.80;;;;;;4999906;28;20217;-43
2023/01/01 03:09:27;;;;;;;3.90;1.40;;;24.40;45.80;;;;;;5000086;28;20216;-42
2023/01/01 03:12:01;;;;;;;3.42;1.27;;;24.40;45.80;;;;;;5000979;28;20197;-41
2023/01/01 03:14:41;;;;;;;4.15;1.33;;;24.40;45.70;;;;;;4998354;28;20219;-44
2023/01/01 03:17:22;;;;;;;2.33;1.10;;;24.50;45.90;;;;;;4998029;28;20194;-44
2023/01/01 03:19:55;;;;;;;3.83;1.30;;;24.50;45.80;;;;;;4999075;28;20189;-43
2023/01/01 03:22:30;;;;;;;3.55;1.48;;;24.50;45.80;;;;;;4998812;28;20197;-47
2023/01/01 03:25:05;;;;;;;4.85;1.33;;;24.50;45.70;;;;;;5000359;28;20213;-41
2023/01/01 03:27:40;;;;;;;4.82;1.17;;;24.60;45.60;;;;;;4998769;28;20581;-42
2023/01/01 03:30:13;;;;;;;6.35;1.52;;;24.60;45.60;;;;;;5005266;28;20188;-41
2023/01/01 03:33:03;;;;;;;3.05;1.13;;;24.60;45.50;;;;;;5010168;28;20852;-41
2023/01/01 03:35:40;;;;;;;3.28;1.30;;;24.60;45.40;;;;;;5010170;28;20220;-42
2023/01/01 03:38:17;;;;;;;3.95;1.30;;;24.70;45.50;;;;;;5009991;28;20224;-42
2023/01/01 03:40:50;;;;;;;3.53;1.20;;;24.70;45.30;;;;;;5010376;28;20566;-42
2023/01/01 03:43:28;;;;;;;5.13;1.40;;;24.70;45.20;;;;;;5009924;28;20232;-41
2023/01/01 03:46:01;;;;;;;3.58;1.15;;;24.80;45.10;;;;;;5003700;28;20677;-46
2023/01/01 03:48:54;;;;;;;2.15;1.13;;;24.70;45.20;;;;;;5001288;28;20688;-58
2023/01/01 03:51:28;;;;;;;6.00;1.77;;;24.80;45.10;;;;;;5009571;28;20288;-59
2023/01/01 03:54:03;;;;;;;4.63;1.58;;;24.80;43.60;;;;;;5010206;28;20232;-60
2023/01/01 03:56:41;;;;;;;5.18;1.67;;;24.70;43.10;;;;;;5009364;28;20652;-61
2023/01/01 03:59:18;;;;;;;5.65;1.90;;;24.60;42.60;;;;;;5010165;28;20545;-40
2023/01/01 04:01:53;;;;;;;4.70;1.60;;;24.50;42.60;;;;;;4989963;28;20215;-43
2023/01/01 04:04:26;;;;;;;3.42;1.40;;;24.40;43.60;;;;;;4993659;28;20231;-43
2023/01/01 04:06:59;;;;;;;4.40;1.48;;;24.30;43.20;;;;;;4993058;28;20241;-40
2023/01/01 04:09:34;;;;;;;5.00;1.52;;;24.20;43.50;;;;;;4993616;28;20511;-40
2023/01/01 04:12:05;;;;;;;5.63;1.85;;;24.20;43.60;;;;;;4997970;28;20562;-43
2023/01/01 04:14:38;;;;;;;4.05;1.52;;;24.20;43.90;;;;;;5009583;28;20224;-42
2023/01/01 04:17:10;;;;;;;3.85;1.38;;;24.20;44.20;;;;;;5013495;28;20208;-43
2023/01/01 04:19:43;;;;;;;3.70;1.45;;;24.20;44.10;;;;;;5012313;28;20209;-40
2023/01/01 04:22:13;;;;;;;4.20;1.50;;;24.30;44.10;;;;;;5012787;28;20204;-40
2023/01/01 04:24:44;;;;;;;2.80;1.13;;;24.30;44.00;;;;;;5003676;28;20220;-43
2023/01/01 04:27:15;;;;;;;4.85;1.25;;;24.30;44.10;;;;;;4993605;28;20808;-41
2023/01/01 04:29:45;;;;;;;2.75;1.05;;;24.40;44.30;;;;;;4993589;28;20725;-45
2023/01/01 04:32:16;;;;;;;3.28;1.30;;;24.40;44.40;;;;;;4993054;28;20213;-40
2023/01/01 04:34:48;;;;;;;3.55;1.08;;;24.40;44.50;;;;;;4992876;28;20232;-43
2023/01/01 04:37:19;;;;;;;4.03;1.23;;;24.50;44.50;;;;;;4992637;28;20209;-44
2023/01/01 04:39:50;;;;;;;3.40;1.17;;;24.50;44.50;;;;;;4992980;28;20672;-40
2023/01/01 04:42:21;;;;;;;2.92;1.30;;;24.50;44.40;;;;;;5000252;28;20208;-41
2023/01/01 04:44:51;;;;;;;2.78;1.02;;;24.60;44.40;;;;;;5012822;28;20217;-40
2023/01/01 04:47:22;;;;;;;3.88;1.40;;;24.60;44.20;;;;;;5012693;28;20228;-43
2023/01/01 04:49:54;;;;;;;4.03;1.48;;;24.70;44.30;;;;;;5011874;28;20196;-42
2023/01/01 04:52:25;;;;;;;3.05;1.50;;;24.70;44.10;;;;;;5012342;28;20216;-41
2023/01/01 04:54:56;;;;;;;5.15;1.48;;;24.70;44.10;;;;;;5012619;28;20221;-41
2023/01/01 04:57:26;;;;;;;2.08;1.25;;;24.80;44.10;;;;;;5012433;28;20201;-42
2023/01/01 04:59:57;;;;;;;3.55;1.10;;;24.70;44.00;;;;;;5012851;28;20216;-40
2023/01/01 05:02:28;;;;;;;2.88;1.35;;;24.80;43.80;;;;;;5011906;28;20208;-41
2023/01/01 05:05:01;;;;;;;4.22;1.35;;;24.80;43.80;;;;;;5011921;28;20220;-42
2023/01/01 05:07:31;;;;;;;4.57;1.60;;;24.80;44.00;;;;;;5010743;28;20225;-42
2023/01/01 05:10:02;;;;;;;3.95;1.50;;;24.90;44.10;;;;;;5011721;28;20220;-42
2023/01/01 05:12:33;;;;;;;2.35;1.10;;;24.90;43.90;;;;;;5011357;28;20205;-40
2023/01/01 05:15:04;;;;;;;2.05;1.10;;;24.90;43.90;;;;;;5012030;28;20227;-43
2023/01/01 05:17:34;;;;;;;3.33;1.05;;;24.90;43.90;;;;;;5010649;28;21160;-41
2023/01/01 05:20:07;;;;;;;3.85;1.27;;;24.90;44.50;;;;;;5011582;28;20209;-41
2023/01/01 05:22:38;;;;;;;4.13;1.60;;;25.00;43.80;;;;;;5011902;28;20208;-41
2023/01/01 05:25:09;;;;;;;2.50;1.08;;;25.00;43.60;;;;;;5009317;28;20213;-40
2023/01/01 05:27:40;;;;;;;3.25;1.45;;;25.00;43.50;;;;;;5011867;28;20232;-43
2023/01/01 05:30:11;;;;;;;2.38;1.15;;;25.00;43.50;;;;;;5011790;28;20536;-42
2023/01/01 05:32:42;;;;;;;4.72;1.50;;;25.00;43.60;;;;;;5011604;28;20197;-40
2023/01/01 05:35:15;;;;;;;2.72;1.10;;;25.00;43.50;;;;;;5011571;28;20243;-40
2023/01/01 05:37:45;;;;;;;3.28;1.27;;;25.00;43.50;;;;;;5011373;28;20660;-39
2023/01/01 05:40:16;;;;;;;2.55;1.13;;;25.10;43.50;;;;;;5012791;28;20189;-43
2023/01/01 05:42:49;;;;;;;2.92;1.10;;;25.10;43.50;;;;;;5011520;28;20205;-43
2023/01/01 05:45:20;;;;;;;3.00;1.13;;;25.10;43.50;;;;;;5011466;28;20223;-44
2023/01/01 05:47:50;;;;;;;3.70;1.15;;;25.10;43.70;;;;;;5011376;28;20232;-42
2023/01/01 05:50:23;;;;;;;2.33;1.17;;;25.10;43.70;;;;;;5011334;28;20197;-43
2023/01/01 05:52:54;;;;;;;4.93;1.52;;;25.10;43.80;;;;;;5011198;28;20688;-42
2023/01/01 05:55:24;;;;;;;2.60;1.30;;;25.10;43.70;;;;;;5010848;28;20205;-45
2023/01/01 05:57:55;;;;;;;4.80;1.60;;;25.10;43.50;;;;;;5011623;28;20208;-42
2023/01/01 06:00:27;;;;;;;3.53;1.40;;;25.10;43.60;;;;;;5010906;28;20201;-42
2023/01/01 06:02:57;;;;;;;4.55;1.70;;;25.10;43.50;;;;;;5010899;28;20203;-43
2023/01/01 06:05:30;;;;;;;4.43;1.48;;;25.10;43.50;;;;;;5003517;28;20193;-42
2023/01/01 06:08:01;;;;;;;8.18;1.98;;;25.00;43.30;;;;;;4991742;28;20233;-41
2023/01/01 06:10:31;;;;;;;6.38;1.77;;;25.00;43.40;;;;;;4991471;28;20202;-44
2023/01/01 06:13:02;;;;;;;3.53;1.70;;;25.00;43.30;;;;;;5003911;28;20208;-41
2023/01/01 06:15:33;;;;;;;8.55;2.30;;;25.00;43.40;;;;;;5010703;28;20205;-44
2023/01/01 06:18:03;;;;;;;4.43;2.10;;;25.00;43.40;;;;;;5010863;28;20577;-44
2023/01/01 06:20:36;;;;;;;6.20;2.00;;;24.90;43.40;;;;;;5010771;28;20212;-45
2023/01/01 06:23:07;;;;;;;6.72;1.85;;;24.90;43.50;;;;;;5010633;28;20678;-44
2023/01/01 06:25:38;;;;;;;4.35;1.63;;;24.90;43.40;;;;;;4994454;28;20201;-40
2023/01/01 06:28:09;;;;;;;5.07;2.03;;;24.90;44.10;;;;;;4990368;28;20225;-43
2023/01/01 06:30:39;;;;;;;6.32;2.33;;;24.90;43.50;;;;;;4990494;28;20201;-44
2023/01/01 06:33:10;;;;;;;4.50;1.70;;;24.90;43.50;;;;;;4990491;28;20189;-44
2023/01/01 06:35:43;;;;;;;6.88;2.03;;;24.90;43.50;;;;;;4991563;28;20658;-43
2023/01/01 06:38:13;;;;;;;4.53;1.90;;;24.90;43.50;;;;;;4990535;28;20201;-43
2023/01/01 06:40:44;;;;;;;5.43;1.70;;;24.90;43.50;;;;;;4991320;28;20209;-43
2023/01/01 06:43:14;;;;;;;3.63;1.80;;;24.90;43.50;;;;;;5006051;28;20196;-43
2023/01/01 06:45:45;;;;;;;5.28;1.70;;;24.90;43.50;;;;;;5011227;28;20561;-43
2023/01/01 06:48:16;;;;;;;5.88;2.10;;;24.90;43.50;;;;;;5011164;28;20251;-43
2023/01/01 06:50:48;;;;;;;4.40;1.75;;;24.90;43.50;;;;;;5011007;28;20208;-44
2023/01/01 06:53:19;;;;;;;5.40;1.45;;;24.90;43.50;;;;;;5009864;28;20197;-44
2023/01/01 06:55:51;;;;;;;4.50;1.50;;;24.90;43.60;;;;;;5011439;28;20197;-44
2023/01/01 06:58:22;;;;;;;4.28;1.52;;;24.80;43.60;;;;;;5011104;28;20193;-42
2023/01/01 07:00:53;;;;;;;4.75;1.48;;;24.80;43.60;;;;;;5010130;28;20656;-42
2023/01/01 07:03:23;;;;;;;3.58;1.40;;;24.80;43.60;;;;;;5010421;28;20220;-41
2023/01/01 07:05:57;;;;;;;3.20;1.20;;;24.80;43.60;;;;;;5010873;28;20196;-43
2023/01/01 07:08:28;;;;;;;3.92;1.90;;;24.80;43.70;;;;;;5010794;28;20232;-41
2023/01/01 07:10:59;;;;;;;3.67;1.55;;;24.80;43.70;;;;;;5010633;28;20197;-45
2023/01/01 07:13:30;;;;;;;3.22;1.35;;;24.80;43.70;;;;;;5010366;28;20247;-40
2023/01/01 07:16:01;;;;;;;3.58;1.60;;;24.80;43.70;;;;;;5010288;28;20711;-41
2023/01/01 07:18:32;;;;;;;3.60;1.33;;;24.80;43.70;;;;;;5010003;28;20558;-45
2023/01/01 07:21:06;;;;;;;3.55;1.80;;;24.80;43.80;;;;;;5010281;28;20463;-40
2023/01/01 07:23:37;;;;;;;3.35;1.60;;;24.80;43.80;;;;;;5010283;28;20590;-40
2023/01/01 07:26:08;;;;;;;6.68;1.33;;;24.70;43.80;;;;;;5010066;28;20201;-44
2023/01/01 07:28:38;;;;;;;3.90;1.50;;;24.70;43.80;;;;;;5010025;28;20244;-42
2023/01/01 07:31:10;;;;;;;4.00;1.45;;;24.70;43.80;;;;;;4999927;28;20208;-42
2023/01/01 07:33:41;;;;;;;3.80;1.33;;;24.70;43.90;;;;;;4990487;28;20229;-43
2023/01/01 07:36:14;;;;;;;4.65;1.33;;;24.60;43.90;;;;;;4990722;28;20228;-43
2023/01/01 07:38:45;;;;;;;2.70;1.23;;;24.60;43.90;;;;;;4990523;28;20206;-43
2023/01/01 07:41:15;;;;;;;2.83;1.45;;;24.60;44.00;;;;;;4994663;28;20200;-43
2023/01/01 07:43:46;;;;;;;4.55;1.52;;;24.60;44.10;;;;;;5013911;28;20851;-43
2023/01/01 07:46:17;;;;;;;3.97;1.30;;;24.60;44.10;;;;;;5014198;28;20201;-41
2023/01/01 07:48:48;;;;;;;3.67;1.50;;;24.60;44.10;;;;;;5014165;28;20225;-43
2023/01/01 07:51:20;;;;;;;4.20;1.20;;;24.50;44.10;;;;;;5013572;28;20193;-41
2023/01/01 07:53:51;;;;;;;3.67;1.27;;;24.50;44.20;;;;;;5007999;28;20231;-43
2023/01/01 07:56:22;;;;;;;5.28;1.73;;;24.50;44.20;;;;;;5013023;28;20192;-40
2023/01/01 07:58:53;;;;;;;3.85;1.52;;;24.50;44.20;;;;;;5013236;28;20203;-40
2023/01/01 08:01:23;;;;;;;5.60;1.40;;;24.50;44.20;;;;;;5013277;28;20204;-40
2023/01/01 08:03:54;;;;;;;4.03;1.20;;;24.50;44.30;;;;;;5012559;28;20217;-40
2023/01/01 08:06:27;;;;;;;3.17;1.48;;;24.50;44.30;;;;;;5013958;28;20209;-40
2023/01/01 08:08:58;;;;;;;2.75;1.13;;;24.50;44.30;;;;;;5013161;28;20251;-41
2023/01/01 08:11:28;;;;;;;4.35;1.40;;;24.40;44.30;;;;;;5010081;28;20193;-40
2023/01/01 08:13:59;;;;;;;3.08;1.20;;;24.40;44.40;;;;;;4993721;28;20228;-40
2023/01/01 08:16:30;;;;;;;3.72;1.80;;;24.40;44.40;;;;;;4993927;28;20202;-41
2023/01/01 08:19:00;;;;;;;3.33;1.67;;;24.40;44.40;;;;;;4993383;28;20201;-40
2023/01/01 08:21:33;;;;;;;4.15;1.10;;;24.30;44.50;;;;;;4993810;28;20572;-40
2023/01/01 08:24:04;;;;;;;2.22;1.00;;;24.30;44.50;;;;;;4993573;28;20221;-44
2023/01/01 08:26:35;;;;;;;3.60;1.17;;;24.30;44.50;;;;;;4993159;28;20201;-40
2023/01/01 08:29:06;;;;;;;2.53;1.20;;;24.30;44.50;;;;;;4992953;28;20228;-40
2023/01/01 08:31:37;;;;;;;2.80;1.27;;;24.30;44.50;;;;;;4992987;28;20209;-42
2023/01/01 08:34:08;;;;;;;2.90;1.10;;;24.30;44.50;;;;;;4992584;28;20611;-44
2023/01/01 08:36:41;;;;;;;4.68;1.33;;;24.20;44.50;;;;;;4992582;28;20198;-43
2023/01/01 08:39:12;;;;;;;2.53;1.17;;;24.20;44.60;;;;;;4992659;28;20264;-43
2023/01/01 08:41:42;;;;;;;3.15;1.42;;;24.20;44.60;;;;;;4994410;28;20201;-42
2023/01/01 08:44:13;;;;;;;3.70;1.35;;;24.10;45.20;;;;;;5011542;28;20221;-40
2023/01/01 08:46:44;;;;;;;3.05;1.15;;;24.10;44.60;;;;;;4995778;28;20833;-44
2023/01/01 08:49:14;;;;;;;3.13;1.48;;;24.10;44.60;;;;;;5008880;28;20228;-42
2023/01/01 08:51:47;;;;;;;3.30;1.13;;;24.10;44.70;;;;;;5012335;28;20197;-43
2023/01/01 08:54:18;;;;;;;3.45;1.27;;;24.10;44.70;;;;;;5005259;28;20233;-45
2023/01/01 08:56:48;;;;;;;3.53;1.40;;;24.00;44.80;;;;;;4994308;28;20200;-40
2023/01/01 08:59:19;;;;;;;3.85;1.30;;;24.00;44.80;;;;;;5011529;28;20569;-43
2023/01/01 09:01:50;;;;;;;1.45;1.20;;;24.00;44.80;;;;;;5012596;28;20200;-40
2023/01/01 09:04:20;;;;;;;2.10;1.27;;;24.00;44.80;;;;;;5011327;28;20217;-41
2023/01/01 09:06:53;;;;;;;2.78;1.40;;;24.00;44.80;;;;;;5011748;28;20197;-43
2023/01/01 09:09:24;;;;;;;2.53;1.42;;;24.00;44.90;;;;;;5011899;28;20235;-45
2023/01/01 09:11:56;;;;;;;2.33;1.10;;;24.00;44.90;;;;;;5012533;28;20205;-42
2023/01/01 09:14:26;;;;;;;2.63;1.27;;;23.90;44.90;;;;;;5012224;28;20224;-41
2023/01/01 09:16:57;;;;;;;3.00;1.20;;;23.90;44.90;;;;;;5009765;28;20201;-44
2023/01/01 09:19:28;;;;;;;1.33;0.85;;;23.90;44.90;;;;;;5011818;28;20668;-42
2023/01/01 09:22:00;;;;;;;2.92;1.50;;;23.80;44.90;;;;;;5012014;28;20575;-40
2023/01/01 09:24:31;;;;;;;2.63;1.10;;;23.80;45.00;;;;;;5012153;28;20232;-44
2023/01/01 09:27:02;;;;;;;2.53;1.30;;;23.80;45.10;;;;;;5011602;28;20197;-45
2023/01/01 09:29:32;;;;;;;3.95;1.30;;;23.70;45.00;;;;;;5011671;28;20224;-40
2023/01/01 09:32:03;;;;;;;3.05;1.30;;;23.70;45.10;;;;;;5011825;28;20197;-41
2023/01/01 09:34:34;;;;;;;2.30;1.23;;;23.70;45.20;;;;;;5009047;28;20217;-43
2023/01/01 09:37:06;;;;;;;2.83;1.25;;;23.70;45.10;;;;;;5011995;28;20208;-40
2023/01/01 09:39:37;;;;;;;2.05;1.10;;;23.60;45.10;;;;;;5011439;28;20200;-41
2023/01/01 09:42:26;;;;;;;2.95;1.23;;;23.60;45.70;;;;;;5010832;28;20204;-42
2023/01/01 09:45:30;;;;;;;4.38;1.42;;;23.60;45.10;;;;;;5010286;28;20228;-42
2023/01/01 09:48:05;;;;;;;1.70;1.10;;;23.60;45.20;;;;;;5009300;28;20210;-43
2023/01/01 09:50:40;;;;;;;3.08;1.30;;;23.50;45.10;;;;;;4997170;28;20229;-44
2023/01/01 09:53:18;;;;;;;2.97;1.17;;;23.50;45.20;;;;;;4992209;28;20208;-48
2023/01/01 09:55:52;;;;;;;2.20;1.05;;;23.50;45.30;;;;;;4999211;28;20554;-42
2023/01/01 09:58:26;;;;;;;4.78;1.40;;;23.40;45.20;;;;;;5011760;28;20219;-42
2023/01/01 10:01:00;;;;;;;1.77;0.85;;;23.40;45.30;;;;;;5011632;28;20443;-47
2023/01/01 10:03:42;;;;;;;2.50;1.30;;;23.40;45.30;;;;;;5007629;28;20571;-46
2023/01/01 10:06:22;;;;;;;4.72;1.25;;;23.40;45.40;;;;;;5011965;28;20193;-43
2023/01/01 10:09:07;;;;;;;2.42;1.17;;;23.30;45.40;;;;;;5008248;28;20225;-43
2023/01/01 10:11:47;;;;;;;2.58;1.20;;;23.30;45.40;;;;;;4999629;28;20190;-40
2023/01/01 10:14:23;;;;;;;1.88;0.90;;;23.30;45.40;;;;;;5000185;28;20217;-45
2023/01/01 10:16:57;;;;;;;2.45;1.08;;;23.30;45.50;;;;;;5000051;28;20650;-44
2023/01/01 10:19:33;;;;;;;3.40;1.30;;;23.20;45.50;;;;;;5000440;28;20193;-45
2023/01/01 10:22:10;;;;;;;1.95;1.10;;;23.20;45.50;;;;;;5001412;28;20193;-40
2023/01/01 10:24:50;;;;;;;2.45;1.30;;;23.20;45.50;;;;;;5000474;28;20209;-47
2023/01/01 10:27:32;;;;;;;2.38;1.02;;;23.20;45.50;;;;;;5000724;28;20189;-48
2023/01/01 10:30:06;;;;;;;3.00;1.30;;;23.10;46.10;;;;;;5000892;28;20228;-44
2023/01/01 10:32:39;;;;;;;1.95;0.95;;;23.10;45.50;;;;;;5000175;28;20201;-44
2023/01/01 10:35:15;;;;;;;2.08;1.10;;;23.10;45.50;;;;;;4999850;28;20288;-44
2023/01/01 10:37:46;;;;;;;2.08;0.98;;;23.00;45.50;;;;;;5000983;28;20194;-50
2023/01/01 10:40:20;;;;;;;2.00;0.82;;;23.00;45.60;;;;;;5000168;28;20205;-41
2023/01/01 10:42:53;;;;;;;1.77;1.00;;;23.00;45.60;;;;;;5000030;28;20238;-42
2023/01/01 10:45:32;;;;;;;1.40;0.85;;;23.00;45.70;;;;;;5000559;28;20213;-43
2023/01/01 10:48:18;;;;;;;1.75;0.90;;;22.90;46.00;;;;;;5000400;28;20657;-43
2023/01/01 10:50:51;;;;;;;2.72;1.10;;;22.90;45.70;;;;;;5001219;28;20221;-43
2023/01/01 10:53:28;;;;;;;2.75;1.08;;;22.90;45.70;;;;;;5000149;28;20221;-43
2023/01/01 10:56:07;;;;;;;3.40;1.17;;;22.80;45.70;;;;;;5000597;28;20204;-43
2023/01/01 10:58:45;;;;;;;2.47;0.93;;;22.80;45.80;;;;;;5001530;28;20193;-44
2023/01/01 11:01:23;;;;;;;1.50;1.02;;;22.80;45.80;;;;;;5002375;28;20665;-43
2023/01/01 11:04:01;;;;;;;1.77;0.85;;;22.80;45.80;;;;;;4999326;28;20213;-47
2023/01/01 11:06:35;;;;;;;2.03;1.00;;;22.80;45.80;;;;;;4999048;28;20212;-44
2023/01/01 11:09:07;;;;;;;2.60;1.13;;;22.70;45.70;;;;;;4999817;28;20223;-43
2023/01/01 11:11:44;;;;;;;1.55;1.00;;;22.70;45.70;;;;;;5002128;28;20197;-40
2023/01/01 11:14:24;;;;;;;2.67;1.10;;;22.70;45.80;;;;;;5004217;28;20220;-46
2023/01/01 11:16:56;;;;;;;3.05;1.15;;;22.70;45.80;;;;;;5004260;28;20193;-41
2023/01/01 11:19:30;;;;;;;2.10;1.10;;;22.60;45.80;;;;;;5005524;28;20197;-42
2023/01/01 11:22:01;;;;;;;2.28;1.00;;;22.60;45.80;;;;;;5005325;28;20194;-43
2023/01/01 11:24:32;;;;;;;2.22;1.27;;;22.60;45.80;;;;;;5004063;28;20213;-41
2023/01/01 11:27:23;;;;;;;2.33;1.13;;;22.50;45.80;;;;;;5003211;28;20197;-40
2023/01/01 11:29:54;;;;;;;2.33;1.10;;;22.50;45.90;;;;;;5004777;28;20239;-44
2023/01/01 11:32:29;;;;;;;1.88;1.00;;;22.50;45.90;;;;;;5003629;28;20205;-40
2023/01/01 11:35:02;;;;;;;2.80;1.15;;;22.50;45.90;;;;;;5003374;28;20224;-43
2023/01/01 11:37:34;;;;;;;2.33;0.98;;;22.50;46.00;;;;;;5004361;28;20193;-41
2023/01/01 11:40:07;;;;;;;2.40;1.20;;;22.50;46.00;;;;;;5003488;28;20186;-43
2023/01/01 11:42:46;;;;;;;2.38;1.05;;;22.40;46.00;;;;;;5005956;28;20204;-39
2023/01/01 11:45:22;;;;;;;3.95;1.20;;;22.40;46.10;;;;;;5004817;28;20680;-42
2023/01/01 11:47:57;;;;;;;2.97;1.00;;;22.40;46.10;;;;;;5003192;28;20185;-43
2023/01/01 11:50:34;;;;;;;1.50;1.08;;;22.40;46.10;;;;;;5003569;28;20244;-40
2023/01/01 11:53:20;;;;;;;1.63;1.10;;;22.40;46.10;;;;;;5002826;28;20197;-42
2023/01/01 11:55:55;;;;;;;2.20;1.08;;;22.30;46.10;;;;;;5004232;28;20194;-40
2023/01/01 11:58:31;;;;;;;3.38;1.30;;;22.30;46.10;;;;;;5006243;28;20197;-40
2023/01/01 12:01:05;;;;;;;2.38;1.00;;;22.30;46.10;;;;;;5002978;28;20197;-39
2023/01/01 12:03:41;;;;;;;2.63;1.10;;;22.30;46.20;;;;;;5003737;28;20217;-39
2023/01/01 12:06:19;;;;;;;2.20;0.90;;;22.20;46.20;;;;;;5003074;28;20268;-44
2023/01/01 12:08:57;;;;;;;3.22;1.15;;;22.20;46.20;;;;;;5002617;28;20189;-43
2023/01/01 12:11:34;;;;;;;2.65;1.05;;;22.20;46.20;;;;;;5002737;28;20212;-41
2023/01/01 12:14:15;;;;;;;2.22;1.10;;;22.20;46.20;;;;;;5005322;28;20239;-40
2023/01/01 12:16:52;;;;;;;2.03;1.00;;;22.10;46.20;;;;;;5004881;28;20209;-40
2023/01/01 12:19:28;;;;;;;2.13;1.10;;;22.10;46.20;;;;;;5004445;28;20201;-40
2023/01/01 12:22:04;;;;;;;2.53;1.17;;;22.10;46.20;;;;;;5002795;28;20653;-40
2023/01/01 12:24:36;;;;;;;2.40;1.23;;;22.10;46.20;;;;;;5002457;28;20205;-42
2023/01/01 12:27:18;;;;;;;3.70;1.25;;;22.10;46.20;;;;;;5001961;28;20213;-41
2023/01/01 12:30:24;;;;;;;1.13;0.70;;;22.10;46.20;;;;;;4999362;28;20228;-40
2023/01/01 12:33:32;;;;;;;2.75;0.90;;;22.00;46.20;;;;;;4985320;28;20208;-41
2023/01/01 12:36:27;;;;;;;2.20;1.10;;;22.00;46.30;;;;;;4993522;28;20208;-40
2023/01/01 12:39:39;;;;;;;2.47;0.90;;;22.00;46.30;;;;;;4987278;28;20205;-42
2023/01/01 12:42:18;;;;;;;2.03;1.20;;;21.90;46.30;;;;;;4998212;28;20189;-40
2023/01/01 12:45:09;;;;;;;1.27;0.90;;;21.90;46.40;;;;;;5002956;28;20217;-41
2023/01/01 12:47:52;;;;;;;2.70;1.00;;;21.90;46.40;;;;;;5001625;28;20201;-41
2023/01/01 12:50:34;;;;;;;3.03;1.20;;;21.90;46.40;;;;;;5002730;28;20232;-44
2023/01/01 12:53:16;;;;;;;2.10;1.10;;;21.90;46.40;;;;;;5002628;28;20579;-40
2023/01/01 12:56:16;;;;;;;1.92;1.00;;;21.80;46.40;;;;;;5003617;28;20282;-46
2023/01/01 12:58:51;;;;;;;3.28;1.23;;;21.80;46.40;;;;;;5005384;28;20225;-41
2023/01/01 13:01:23;;;;;;;2.20;1.08;;;21.80;46.40;;;;;;5000958;28;20251;-40
2023/01/01 13:03:58;;;;;;;2.40;1.08;;;21.80;46.40;;;;;;5000487;28;20219;-42
2023/01/01 13:06:35;;;;;;;1.45;0.90;;;21.80;47.00;;;;;;5002414;28;20675;-43
2023/01/01 13:09:09;;;;;;;2.17;1.10;;;21.80;46.40;;;;;;5001817;28;20193;-39
2023/01/01 13:11:42;;;;;;;1.38;0.95;;;21.70;46.40;;;;;;5000623;28;20234;-43
2023/01/01 13:14:12;;;;;;;1.75;0.80;;;21.70;46.40;;;;;;5002342;28;20238;-42
2023/01/01 13:16:47;;;;;;;3.63;1.23;;;21.70;46.50;;;;;;5000989;28;20201;-43
2023/01/01 13:19:33;;;;;;;2.13;0.90;;;21.60;46.40;;;;;;5000490;28;20197;-42
2023/01/01 13:22:47;;;;;;;1.90;0.90;;;21.60;46.50;;;;;;5001192;28;20658;-40
2023/01/01 13:25:25;;;;;;;2.22;1.10;;;21.60;46.60;;;;;;4992335;28;20774;-41
2023/01/01 13:28:15;;;;;;;2.00;0.85;;;21.60;46.50;;;;;;5002558;28;20212;-40